Weather History for Cody, WY

Change the Weather History Date:

Tuesday, January 22, 2013

  Actual Average Record
Temperature  
Mean Temperature 36 °F -  
Max Temperature 48 °F 37 °F 57 °F (1934)
Min Temperature 24 °F 16 °F -27 °F (1962)
Degree Days  
Heating Degree Days 29    
Moisture  
Dew Point 11 °F    
Average Humidity 37    
Maximum Humidity 80    
Minimum Humidity 16    
Precipitation  
Precipitation 0.00 in - - ()
Sea Level Pressure  
Sea Level Pressure 30.03 in    
Wind  
Wind Speed 13 mph (NNW)    
Max Wind Speed 25 mph    
Max Gust Speed 39 mph    
Visibility 10 miles    
Events      
Averages and records for this station are not official NWS values.
T = Trace of Precipitation, MM = Missing Value Source: NWS Daily Summary

Daily Weather History Graph

Daily Weather History Graph

Search for Another Location

Airport:

Trip Planner

Search our weather history database for the weather conditions in past years. The results will help you decide how hot, cold, wet, or windy it might be!

Date:

Astronomy

Jan. 22, 2013 Rise Set
Actual Time 7:44 AM MST 5:11 PM MST
Civil Twilight 7:12 AM MST 5:43 PM MST
Nautical Twilight 6:36 AM MST 6:19 PM MST
Astronomical Twilight 6:02 AM MST 6:53 PM MST
Moon 1:35 PM MST 4:10 AM MST
Length of Visible Light 10h 31m
Length of Day
9h 27m
Waxing Gibbous, 83% of the Moon is Illuminated
Jan 22
Waxing Gibbous
Jan 26
Full
Feb 3
Last Quarter
Feb 10
New
Feb 17
First Quarter

Hourly Weather History & Observations

Time (MST) Temp. Windchill Dew Point Humidity Pressure Visibility Wind Dir Wind Speed Gust Speed Precip Events Conditions
12:15 AM 44.6 °F 36.4 °F 6.8 °F 21% 29.99 in 10.0 mi West 20.7 mph 31.1 mph N/A   Clear
12:35 AM 46.4 °F 38.1 °F 5.0 °F 18% 29.99 in 10.0 mi West 24.2 mph 35.7 mph N/A   Clear
12:55 AM 46.4 °F 37.9 °F 5.0 °F 18% 29.98 in 10.0 mi West 25.3 mph 33.4 mph N/A   Clear
1:15 AM 44.6 °F 35.7 °F 5.0 °F 20% 29.98 in 10.0 mi West 24.2 mph 39.1 mph N/A   Clear
1:55 AM 44.6 °F 36.9 °F 5.0 °F 20% 30.00 in 10.0 mi West 18.4 mph 24.2 mph N/A   Clear
2:15 AM 41.0 °F 34.3 °F 5.0 °F 23% 30.00 in 10.0 mi WNW 11.5 mph 20.7 mph N/A   Clear
2:35 AM 42.8 °F 35.8 °F 6.8 °F 23% 30.00 in 10.0 mi WNW 13.8 mph 26.5 mph N/A   Clear
2:55 AM 41.0 °F 32.5 °F 6.8 °F 24% 30.00 in 10.0 mi West 17.3 mph 24.2 mph N/A   Clear
3:15 AM 44.6 °F 36.6 °F 5.0 °F 20% 30.00 in 10.0 mi West 19.6 mph 28.8 mph N/A   Clear
3:55 AM 44.6 °F 36.1 °F 3.2 °F 18% 30.00 in 10.0 mi West 21.9 mph 33.4 mph N/A   Clear
4:15 AM 44.6 °F 37.2 °F 3.2 °F 18% 29.99 in 10.0 mi West 17.3 mph 26.5 mph N/A   Clear
4:35 AM 44.6 °F 36.9 °F 3.2 °F 18% 30.00 in 10.0 mi West 18.4 mph 24.2 mph N/A   Clear
4:55 AM 44.6 °F 36.9 °F 3.2 °F 18% 30.00 in 10.0 mi West 18.4 mph 31.1 mph N/A   Clear
5:15 AM 46.4 °F 39.2 °F 1.4 °F 16% 30.00 in 10.0 mi West 18.4 mph 31.1 mph N/A   Clear
5:35 AM 46.4 °F 42.4 °F 1.4 °F 16% 30.00 in 10.0 mi WNW 8.1 mph 20.7 mph N/A   Clear
5:55 AM 41.0 °F 38.0 °F 1.4 °F 19% 30.00 in 10.0 mi WNW 4.6 mph - N/A   Clear
6:15 AM 39.2 °F 37.0 °F 3.2 °F 22% 29.99 in 10.0 mi NW 3.5 mph - N/A   Clear
6:35 AM 37.4 °F - 3.2 °F 24% 30.01 in 10.0 mi Calm Calm - N/A   Clear
7:15 AM 42.8 °F 34.8 °F 1.4 °F 18% 30.00 in 10.0 mi West 17.3 mph 26.5 mph N/A   Clear
7:35 AM 44.6 °F 38.4 °F 1.4 °F 17% 30.00 in 10.0 mi West 12.7 mph 25.3 mph N/A   Clear
7:55 AM 44.6 °F 38.4 °F 1.4 °F 17% 30.01 in 10.0 mi West 12.7 mph 25.3 mph N/A   Clear
8:15 AM 37.4 °F 30.3 °F -0.4 °F 20% 30.01 in 10.0 mi NNW 10.4 mph - N/A   Clear
8:35 AM 42.8 °F 36.6 °F 3.2 °F 19% 30.02 in 10.0 mi WNW 11.5 mph 16.1 mph N/A   Clear
8:55 AM 44.6 °F 37.4 °F 3.2 °F 18% 30.02 in 10.0 mi WNW 16.1 mph 21.9 mph N/A   Clear
9:15 AM 41.0 °F - 1.4 °F 19% 30.03 in 10.0 mi Calm Calm - N/A   Clear
9:35 AM 42.8 °F 37.5 °F 5.0 °F 21% 30.03 in 10.0 mi NNE 9.2 mph - N/A   Clear
9:55 AM 39.2 °F 33.6 °F 6.8 °F 26% 30.05 in 10.0 mi NE 8.1 mph - N/A   Clear
10:15 AM 37.4 °F 32.8 °F 8.6 °F 30% 30.05 in 10.0 mi NE 5.8 mph - N/A   Clear
10:35 AM 42.8 °F 41.1 °F 10.4 °F 27% 30.06 in 10.0 mi ENE 3.5 mph - N/A   Clear
10:55 AM 42.8 °F 41.1 °F 10.4 °F 27% 30.07 in 10.0 mi North 3.5 mph - N/A   Clear
11:15 AM 44.6 °F - 12.2 °F 27% 30.07 in 10.0 mi Calm Calm - N/A   Clear
11:35 AM 46.4 °F 45.2 °F 12.2 °F 25% 30.06 in 10.0 mi ESE 3.5 mph - N/A   Clear
12:15 PM 48.2 °F - 12.2 °F 24% 30.04 in 10.0 mi East 9.2 mph - N/A   Clear
12:35 PM 48.2 °F - 14.0 °F 25% 30.04 in 10.0 mi East 13.8 mph - N/A   Clear
12:55 PM 46.4 °F 42.4 °F 12.2 °F 25% 30.04 in 10.0 mi ENE 8.1 mph - N/A   Clear
1:15 PM 46.4 °F 41.5 °F 15.8 °F 29% 30.04 in 10.0 mi East 10.4 mph - N/A   Clear
1:35 PM 46.4 °F 41.5 °F 17.6 °F 32% 30.05 in 10.0 mi East 10.4 mph - N/A   Clear
1:55 PM 48.2 °F - 15.8 °F 27% 30.05 in 10.0 mi ESE 4.6 mph - N/A   Clear
2:15 PM 42.8 °F 37.5 °F 19.4 °F 39% 30.05 in 10.0 mi NE 9.2 mph - N/A   Clear
2:35 PM 44.6 °F 39.7 °F 24.8 °F 46% 30.04 in 10.0 mi North 9.2 mph - N/A   Clear
2:55 PM 44.6 °F 40.2 °F 21.2 °F 39% 30.04 in 10.0 mi North 8.1 mph - N/A   Clear
3:15 PM 46.4 °F 43.5 °F 19.4 °F 34% 30.04 in 10.0 mi WSW 5.8 mph - N/A   Clear
3:35 PM 39.2 °F 33.0 °F 19.4 °F 45% 30.06 in 10.0 mi NNE 9.2 mph - N/A   Clear
3:55 PM 33.8 °F 27.7 °F 19.4 °F 56% 30.06 in 10.0 mi NE 6.9 mph - N/A   Clear
4:15 PM 33.8 °F - 19.4 °F 56% 30.06 in 10.0 mi Calm Calm - N/A   Clear
4:35 PM 32.0 °F 25.6 °F 21.2 °F 64% 30.05 in 10.0 mi NE 6.9 mph - N/A   Clear
4:55 PM 30.2 °F 23.4 °F 21.2 °F 69% 30.05 in 10.0 mi NNE 6.9 mph - N/A   Clear
5:15 PM 28.4 °F 20.4 °F 19.4 °F 69% 30.05 in 10.0 mi NNE 8.1 mph - N/A   Clear
5:35 PM 26.6 °F 22.6 °F 19.4 °F 74% 30.05 in 10.0 mi North 3.5 mph - N/A   Clear
5:55 PM 24.8 °F 16.9 °F 19.4 °F 80% 30.06 in 10.0 mi North 6.9 mph - N/A   Clear
6:15 PM 26.6 °F 22.6 °F 19.4 °F 74% 30.05 in 10.0 mi East 3.5 mph - N/A   Clear
6:35 PM 26.6 °F 20.0 °F 19.4 °F 74% 30.05 in 10.0 mi North 5.8 mph - N/A   Clear
6:55 PM 24.8 °F 19.1 °F 17.6 °F 74% 30.05 in 10.0 mi NNW 4.6 mph - N/A   Clear
7:15 PM 26.6 °F 22.6 °F 19.4 °F 74% 30.05 in 10.0 mi ENE 3.5 mph - N/A   Clear
7:35 PM 26.6 °F 21.2 °F 19.4 °F 74% 30.05 in 10.0 mi NNE 4.6 mph - N/A   Clear
7:55 PM 30.2 °F 24.3 °F 19.4 °F 64% 30.05 in 10.0 mi NNW 5.8 mph - N/A   Clear
8:35 PM 30.2 °F 25.4 °F 19.4 °F 64% 30.04 in 10.0 mi WNW 4.6 mph - N/A   Clear
8:55 PM 35.6 °F 29.9 °F 15.8 °F 44% 30.04 in 10.0 mi NNW 6.9 mph - N/A   Clear
9:15 PM 35.6 °F 27.1 °F 17.6 °F 48% 30.04 in 10.0 mi West 12.7 mph 18.4 mph N/A   Clear
9:35 PM 26.6 °F 22.6 °F 14.0 °F 59% 30.05 in 10.0 mi North 3.5 mph - N/A   Clear
9:55 PM 28.4 °F 22.2 °F 19.4 °F 69% 30.04 in 10.0 mi North 5.8 mph - N/A   Clear
10:16 PM 35.6 °F 29.9 °F 15.8 °F 44% 30.05 in 10.0 mi North 6.9 mph 23.0 mph N/A   Clear
10:56 PM 37.4 °F 31.4 °F 10.4 °F 33% 30.04 in 10.0 mi North 8.1 mph 23.0 mph N/A   Clear
11:15 PM 37.4 °F 30.3 °F 10.4 °F 33% 30.05 in 10.0 mi North 10.4 mph 17.3 mph N/A   Clear
11:35 PM 33.8 °F 27.0 °F 12.2 °F 41% 30.05 in 10.0 mi NE 8.1 mph 17.3 mph N/A   Clear
11:55 PM 28.4 °F 19.7 °F 17.6 °F 64% 30.06 in 10.0 mi North 9.2 mph 17.3 mph N/A   Clear